Time;durP1;ratioP1;P1;durP2;ratioP2;P2;SDS_P1;SDS_P2;PMS_P1;PMS_P2;Temp;Humidity;BMP_temperature;BMP_pressure;BME280_temperature;BME280_humidity;BME280_pressure;Samples;Min_cycle;Max_cycle;Signal;HPM_P1;HPM_P2
2022/06/10 00:00:19;;;;;;;;;;;21.00;67.60;;;;;;5014207;28;20263;-70
2022/06/10 00:02:45;;;;;;;;;;;21.00;67.50;;;;;;5013214;28;19949;-70
2022/06/10 00:05:12;;;;;;;;;;;20.90;67.70;;;;;;5013620;28;19956;-70
2022/06/10 00:07:37;;;;;;;;;;;20.90;67.80;;;;;;5012627;28;19937;-70
2022/06/10 00:10:04;;;;;;;;;;;20.80;67.90;;;;;;5013731;28;19906;-70
2022/06/10 00:12:29;;;;;;;;;;;20.90;68.20;;;;;;5013740;28;19948;-70
2022/06/10 00:14:55;;;;;;;;;;;20.80;68.10;;;;;;5013147;28;19972;-70
2022/06/10 00:17:20;;;;;;;;;;;20.80;68.60;;;;;;5013513;28;19956;-70
2022/06/10 00:19:46;;;;;;;;;;;20.70;68.50;;;;;;5012639;28;19917;-70
2022/06/10 00:22:11;;;;;;;;;;;20.70;68.40;;;;;;5012847;28;19921;-70
2022/06/10 00:24:37;;;;;;;;;;;20.70;68.50;;;;;;5013098;28;19956;-70
2022/06/10 00:27:03;;;;;;;;;;;20.70;68.80;;;;;;5013133;28;19909;-70
2022/06/10 00:29:28;;;;;;;;;;;20.60;68.90;;;;;;5013264;28;20019;-70
2022/06/10 00:31:54;;;;;;;;;;;;;;;;;;5013352;28;19917;-70
2022/06/10 00:34:20;;;;;;;;;;;;;;;;;;5011848;28;19905;-70
2022/06/10 00:36:46;;;;;;;;;;;;;;;;;;5013229;28;19964;-70
2022/06/10 00:39:12;;;;;;;;;;;;;;;;;;5012980;28;19921;-70
2022/06/10 00:41:38;;;;;;;;;;;;;;;;;;5012872;28;19972;-70
2022/06/10 00:44:04;;;;;;;;;;;;;;;;;;5012999;28;19944;-70
2022/06/10 00:46:30;;;;;;;;;;;;;;;;;;5012470;28;20374;-70
2022/06/10 00:48:56;;;;;;;;;;;;;;;;;;5012403;28;19916;-70
2022/06/10 00:51:22;;;;;;;;;;;;;;;;;;5013445;28;19996;-70
2022/06/10 00:53:48;;;;;;;;;;;;;;;;;;5012605;28;19948;-70
2022/06/10 00:56:14;;;;;;;;;;;;;;;;;;5012869;28;19949;-70
2022/06/10 00:58:40;;;;;;;;;;;;;;;;;;5011994;28;20362;-70
2022/06/10 01:01:07;;;;;;;;;;;;;;;;;;5014542;28;19913;-70
2022/06/10 01:03:33;;;;;;;;;;;;;;;;;;5016608;28;19910;-70
2022/06/10 01:05:59;;;;;;;;;;;;;;;;;;5016699;28;19945;-70
2022/06/10 01:08:25;;;;;;;;;;;;;;;;;;5016787;28;19960;-70
2022/06/10 01:10:51;;;;;;;;;;;;;;;;;;5016842;28;19947;-70
2022/06/10 01:13:17;;;;;;;;;;;;;;;;;;5015750;28;20355;-70
2022/06/10 01:15:43;;;;;;;;;;;;;;;;;;5016598;28;19951;-70
2022/06/10 01:18:09;;;;;;;;;;;;;;;;;;5016026;28;20386;-70
2022/06/10 01:20:35;;;;;;;;;;;;;;;;;;5016301;28;19952;-70
2022/06/10 01:23:01;;;;;;;;;;;;;;;;;;5008779;28;19944;-70
2022/06/10 01:25:27;;;;;;;;;;;;;;;;;;5015489;28;19943;-70
2022/06/10 01:27:52;;;;;;;;;;;;;;;;;;5016443;28;20390;-70
2022/06/10 01:30:18;;;;;;;;;;;;;;;;;;5016602;28;19967;-70
2022/06/10 01:32:44;;;;;;;;;;;;;;;;;;5015690;28;19945;-70
2022/06/10 01:35:10;;;;;;;;;;;;;;;;;;5016217;28;20374;-70
2022/06/10 01:37:36;;;;;;;;;;;;;;;;;;5015185;28;19905;-71
2022/06/10 01:40:02;;;;;;;;;;;;;;;;;;5016238;28;20031;-71
2022/06/10 01:42:28;;;;;;;;;;;;;;;;;;5016172;28;20387;-70
2022/06/10 01:44:54;;;;;;;;;;;;;;;;;;5015763;28;20028;-70
2022/06/10 01:47:20;;;;;;;;;;;;;;;;;;5015655;28;19945;-70
2022/06/10 01:49:46;;;;;;;;;;;;;;;;;;5015955;28;19905;-70
2022/06/10 01:52:12;;;;;;;;;;;;;;;;;;5013007;28;19952;-70
2022/06/10 01:54:38;;;;;;;;;;;;;;;;;;5016111;28;19909;-70
2022/06/10 01:57:05;;;;;;;;;;;;;;;;;;5015995;28;19955;-71
2022/06/10 01:59:31;;;;;;;;;;;;;;;;;;5015716;28;19933;-70
2022/06/10 02:01:57;;;;;;;;;;;;;;;;;;5014885;28;19917;-70
2022/06/10 02:04:23;;;;;;;;;;;;;;;;;;5015225;28;19932;-70
2022/06/10 02:06:49;;;;;;;;;;;;;;;;;;5015626;28;20426;-71
2022/06/10 02:09:15;;;;;;;;;;;;;;;;;;5015371;28;19949;-70
2022/06/10 02:11:41;;;;;;;;;;;;;;;;;;5015098;28;19955;-70
2022/06/10 02:14:07;;;;;;;;;;;;;;;;;;5015309;28;19917;-70
2022/06/10 02:16:33;;;;;;;;;;;;;;;;;;5013930;28;19909;-70
2022/06/10 02:18:59;;;;;;;;;;;;;;;;;;5016798;28;19912;-70
2022/06/10 02:21:26;;;;;;;;;;;;;;;;;;5015480;28;19917;-70
2022/06/10 02:23:52;;;;;;;;;;;;;;;;;;5015145;28;19920;-70
2022/06/10 02:26:18;;;;;;;;;;;;;;;;;;5015804;28;20024;-70
2022/06/10 02:28:44;;;;;;;;;;;;;;;;;;5015145;28;19905;-70
2022/06/10 02:31:10;;;;;;;;;;;;;;;;;;5014313;28;19960;-70
2022/06/10 02:33:36;;;;;;;;;;;;;;;;;;5014601;28;19948;-70
2022/06/10 02:36:02;;;;;;;;;;;;;;;;;;5015101;28;19920;-70
2022/06/10 02:38:28;;;;;;;;;;;;;;;;;;5015177;28;19952;-70
2022/06/10 02:40:54;;;;;;;;;;;;;;;;;;5015022;28;19960;-70
2022/06/10 02:43:20;;;;;;;;;;;;;;;;;;5014289;28;19960;-70
2022/06/10 02:45:46;;;;;;;;;;;;;;;;;;5014450;28;19981;-70
2022/06/10 02:48:12;;;;;;;;;;;;;;;;;;5015100;28;20394;-70
2022/06/10 02:50:39;;;;;;;;;;;;;;;;;;5014862;28;19909;-71
2022/06/10 02:53:05;;;;;;;;;;;;;;;;;;5014551;28;20397;-70
2022/06/10 02:55:31;;;;;;;;;;;;;;;;;;5014223;28;19912;-70
2022/06/10 03:03:26;;;;;;;;;;;;;;;;;;5014581;28;19967;-70
2022/06/10 03:05:52;;;;;;;;;;;;;;;;;;5014516;28;20008;-70
2022/06/10 03:08:18;;;;;;;;;;;;;;;;;;5013256;28;20366;-70
2022/06/10 03:10:44;;;;;;;;;;;;;;;;;;5014528;28;19905;-70
2022/06/10 03:13:10;;;;;;;;;;;;;;;;;;5013863;28;19951;-70
2022/06/10 03:15:36;;;;;;;;;;;;;;;;;;5013794;28;19915;-70
2022/06/10 03:18:02;;;;;;;;;;;;;;;;;;5014419;28;19909;-70
2022/06/10 03:20:28;;;;;;;;;;;;;;;;;;5014103;28;20416;-70
2022/06/10 03:22:54;;;;;;;;;;;;;;;;;;5013967;28;19917;-70
2022/06/10 03:25:20;;;;;;;;;;;;;;;;;;5013520;28;20000;-70
2022/06/10 03:27:45;;;;;;;;;;;;;;;;;;5013996;28;19914;-70
2022/06/10 03:30:12;;;;;;;;;;;;;;;;;;5013725;28;19909;-70
2022/06/10 03:32:38;;;;;;;;;;;;;;;;;;5014049;28;19981;-70
2022/06/10 03:35:04;;;;;;;;;;;;;;;;;;5013968;28;19971;-70
2022/06/10 03:37:30;;;;;;;;;;;;;;;;;;5013606;28;19909;-70
2022/06/10 03:39:56;;;;;;;;;;;;;;;;;;5013853;28;20391;-70
2022/06/10 03:42:22;;;;;;;;;;;;;;;;;;5013330;28;19914;-69
2022/06/10 03:44:48;;;;;;;;;;;;;;;;;;5013751;28;19917;-70
2022/06/10 03:47:14;;;;;;;;;;;;;;;;;;5013822;28;19964;-70
2022/06/10 03:49:40;;;;;;;;;;;;;;;;;;5012450;28;19949;-70
2022/06/10 03:52:06;;;;;;;;;;;;;;;;;;5013638;28;19910;-70
2022/06/10 03:54:32;;;;;;;;;;;;;;;;;;5014053;28;19972;-70
2022/06/10 03:56:58;;;;;;;;;;;;;;;;;;5013264;28;19913;-70
2022/06/10 03:59:24;;;;;;;;;;;;;;;;;;5013812;28;20046;-70
2022/06/10 04:01:50;;;;;;;;;;;;;;;;;;5014068;28;19918;-70
2022/06/10 04:04:16;;;;;;;;;;;;;;;;;;5012699;28;19984;-70
2022/06/10 04:06:42;;;;;;;;;;;;;;;;;;5013431;28;20096;-70
2022/06/10 04:09:08;;;;;;;;;;;;;;;;;;5013684;28;19913;-70
2022/06/10 04:11:34;;;;;;;;;;;;;;;;;;5013149;28;20374;-70
2022/06/10 04:14:00;;;;;;;;;;;;;;;;;;5013172;28;19952;-70
2022/06/10 04:16:28;;;;;;;;;;;;;;;;;;5012728;28;19909;-70
2022/06/10 04:18:54;;;;;;;;;;;;;;;;;;5012987;28;19936;-70
2022/06/10 04:21:20;;;;;;;;;;;;;;;;;;5013424;28;20072;-70
2022/06/10 04:23:46;;;;;;;;;;;;;;;;;;5013477;28;20391;-70
2022/06/10 04:26:12;;;;;;;;;;;;;;;;;;5011693;28;19913;-70
2022/06/10 04:28:38;;;;;;;;;;;;;;;;;;5012524;28;19905;-70
2022/06/10 04:31:05;;;;;;;;;;;;;;;;;;5013365;28;19952;-70
2022/06/10 04:33:31;;;;;;;;;;;;;;;;;;5012995;28;19909;-69
2022/06/10 04:35:57;;;;;;;;;;;;;;;;;;5012551;28;19980;-70
2022/06/10 04:38:23;;;;;;;;;;;;;;;;;;5013234;28;19913;-70
2022/06/10 04:40:49;;;;;;;;;;;;;;;;;;5012575;28;20339;-70
2022/06/10 04:43:15;;;;;;;;;;;;;;;;;;5012480;28;19952;-70
2022/06/10 04:45:41;;;;;;;;;;;;;;;;;;5012916;28;19955;-72
2022/06/10 04:48:07;;;;;;;;;;;;;;;;;;5012762;28;19932;-72
2022/06/10 04:50:33;;;;;;;;;;;;;;;;;;5013611;28;19910;-72
2022/06/10 04:52:59;;;;;;;;;;;;;;;;;;5013152;28;19916;-72
2022/06/10 04:55:27;;;;;;;;;;;;;;;;;;5012035;28;19905;-72
2022/06/10 04:57:54;;;;;;;;;;;;;;;;;;5013166;28;19960;-72
2022/06/10 05:00:20;;;;;;;;;;;;;;;;;;5012351;28;19917;-72
2022/06/10 05:02:46;;;;;;;;;;;;;;;;;;5013184;28;19917;-72
2022/06/10 05:05:11;;;;;;;;;;;;;;;;;;5013113;28;20419;-72
2022/06/10 05:07:37;;;;;;;;;;;;;;;;;;5011801;28;20045;-72
2022/06/10 05:10:03;;;;;;;;;;;;;;;;;;5013015;28;19909;-72
2022/06/10 05:12:29;;;;;;;;;;;;;;;;;;5012849;28;20011;-72
2022/06/10 05:14:55;;;;;;;;;;;;;;;;;;5012741;28;20194;-72
2022/06/10 05:17:22;;;;;;;;;;;;;;;;;;5012740;28;19952;-72
2022/06/10 05:19:48;;;;;;;;;;;;;;;;;;5012714;28;20000;-72
2022/06/10 05:22:14;;;;;;;;;;;;;;;;;;5010065;28;19996;-72
2022/06/10 05:24:39;;;;;;;;;;;;;;;;;;5011918;28;20402;-72
2022/06/10 05:27:05;;;;;;;;;;;;;;;;;;5012347;28;19945;-74
2022/06/10 05:29:32;;;;;;;;;;;;;;;;;;5012405;28;19910;-74
2022/06/10 05:31:57;;;;;;;;;;;;;;;;;;5012125;28;19909;-74
2022/06/10 05:37:08;;;;;;;;;;;;;;;;;;5012285;28;19916;-74
2022/06/10 05:39:34;;;;;;;;;;;;;;;;;;5011537;28;19909;-74
2022/06/10 05:42:06;;;;;;;;;;;;;;;;;;5011994;28;19979;-74
2022/06/10 05:44:32;;;;;;;;;;;;;;;;;;5011414;28;20366;-74
2022/06/10 05:47:00;;;;;;;;;;;;;;;;;;5011479;28;19997;-74
2022/06/10 05:49:26;;;;;;;;;;;;;;;;;;5014268;28;19910;-73
2022/06/10 05:51:52;;;;;;;;;;;;;;;;;;5013522;28;20428;-74
2022/06/10 05:54:18;;;;;;;;;;;;;;;;;;5014807;28;19948;-73
2022/06/10 05:56:44;;;;;;;;;;;;;;;;;;5015558;28;19909;-74
2022/06/10 05:59:10;;;;;;;;;;;;;;;;;;5015780;28;20373;-73
2022/06/10 06:01:36;;;;;;;;;;;;;;;;;;5014462;28;19979;-74
2022/06/10 06:04:02;;;;;;;;;;;;;;;;;;5015126;28;19952;-73
2022/06/10 06:06:28;;;;;;;;;;;;;;;;;;5009952;28;19909;-74
2022/06/10 06:08:53;;;;;;;;;;;;;;;;;;5009341;28;20061;-73
2022/06/10 06:11:19;;;;;;;;;;;;;;;;;;5015518;28;19909;-73
2022/06/10 06:13:45;;;;;;;;;;;;;;;;;;5015031;28;19984;-72
2022/06/10 06:16:11;;;;;;;;;;;;;;;;;;5014673;28;19933;-73
2022/06/10 06:18:37;;;;;;;;;;;;;;;;;;5014979;28;19988;-72
2022/06/10 06:21:03;;;;;;;;;;;;;;;;;;5015532;28;19968;-72
2022/06/10 06:23:29;;;;;;;;;;;;;;;;;;5014212;28;20333;-80
2022/06/10 06:25:55;;;;;;;;;;;;;;;;;;5015769;28;19917;-73
2022/06/10 06:28:21;;;;;;;;;;;;;;;;;;5014305;28;20354;-74
2022/06/10 06:30:47;;;;;;;;;;;;;;;;;;5013542;28;19952;-75
2022/06/10 06:33:13;;;;;;;;;;;;;;;;;;5015930;28;20414;-73
2022/06/10 06:35:39;;;;;;;;;;;;;;;;;;5014706;28;19910;-72
2022/06/10 06:38:05;;;;;;;;;;;;;;;;;;5014789;28;20271;-70
2022/06/10 06:40:31;;;;;;;;;;;;;;;;;;5014172;28;20010;-70
2022/06/10 06:42:57;;;;;;;;;;;;;;;;;;5013712;28;19910;-70
2022/06/10 06:45:23;;;;;;;;;;;;;;;;;;5014811;28;20399;-70
2022/06/10 06:47:49;;;;;;;;;;;;;;;;;;5012891;28;20012;-71
2022/06/10 06:50:15;;;;;;;;;;;;;;;;;;5013406;28;20382;-71
2022/06/10 06:52:41;;;;;;;;;;;;;;;;;;5012486;28;20375;-70
2022/06/10 06:55:07;;;;;;;;;;;;;;;;;;5014139;28;19956;-70
2022/06/10 06:57:33;;;;;;;;;;;;;;;;;;5013629;28;19913;-70
2022/06/10 07:00:06;;;;;;;;;;;;;;;;;;5013576;28;19948;-71
2022/06/10 07:02:31;;;;;;;;;;;;;;;;;;5011824;28;19918;-71
2022/06/10 07:04:58;;;;;;;;;;;;;;;;;;5013159;28;19923;-71
2022/06/10 07:07:24;;;;;;;;;;;;;;;;;;5012469;28;19916;-70
2022/06/10 07:09:50;;;;;;;;;;;;;;;;;;5012231;28;19909;-70
2022/06/10 07:12:16;;;;;;;;;;;;;;;;;;5011719;28;19991;-70
2022/06/10 07:14:42;;;;;;;;;;;;;;;;;;5013904;28;20397;-70
2022/06/10 07:17:08;;;;;;;;;;;;;;;;;;5013523;28;19916;-70
2022/06/10 07:19:34;;;;;;;;;;;;;;;;;;5013247;28;19909;-74
2022/06/10 07:22:00;;;;;;;;;;;;;;;;;;5014760;28;20405;-75
2022/06/10 07:24:26;;;;;;;;;;;;;;;;;;5010719;28;19976;-73
2022/06/10 07:26:53;;;;;;;;;;;;;;;;;;5015692;28;19928;-72
2022/06/10 07:29:19;;;;;;;;;;;;;;;;;;5015370;28;19952;-72
2022/06/10 07:31:45;;;;;;;;;;;;;;;;;;5012061;28;19940;-72
2022/06/10 07:34:11;;;;;;;;;;;;;;;;;;5011099;28;19910;-72
2022/06/10 07:36:37;;;;;;;;;;;;;;;;;;5012921;28;19909;-72
2022/06/10 07:39:03;;;;;;;;;;;;;;;;;;5013435;28;19951;-71
2022/06/10 07:44:14;;;;;;;;;;;;;;;;;;5007210;28;19917;-72
2022/06/10 07:46:40;;;;;;;;;;;;;;;;;;5011712;28;19909;-72
2022/06/10 07:49:06;;;;;;;;;;;;;;;;;;5011211;28;19941;-72
2022/06/10 07:51:32;;;;;;;;;;;;;;;;;;5011594;28;19983;-72
2022/06/10 07:53:58;;;;;;;;;;;;;;;;;;5011628;28;19979;-73
2022/06/10 07:56:24;;;;;;;;;;;;;;;;;;5012230;28;19966;-72
2022/06/10 07:58:50;;;;;;;;;;;;;;;;;;5012615;28;19951;-72
2022/06/10 08:01:16;;;;;;;;;;;;;;;;;;5012664;28;19925;-72
2022/06/10 08:03:42;;;;;;;;;;;;;;;;;;5012138;28;19949;-72
2022/06/10 08:06:08;;;;;;;;;;;;;;;;;;5012266;28;19995;-72
2022/06/10 08:08:34;;;;;;;;;;;;;;;;;;5012356;28;20293;-72
2022/06/10 08:11:00;;;;;;;;;;;;;;;;;;5011446;28;19956;-72
2022/06/10 08:13:26;;;;;;;;;;;;;;;;;;5011970;28;20335;-71
2022/06/10 08:15:52;;;;;;;;;;;;;;;;;;5011992;28;19936;-72
2022/06/10 08:18:18;;;;;;;;;;;;;;;;;;5011953;28;20223;-72
2022/06/10 08:23:29;;;;;;;;;;;;;;;;;;5011926;28;20083;-72
2022/06/10 08:25:55;;;;;;;;;;;;;;;;;;5011509;28;24552;-72
2022/06/10 08:28:21;;;;;;;;;;;;;;;;;;5011578;28;19920;-72
2022/06/10 08:30:47;;;;;;;;;;;;;;;;;;5011795;28;19941;-72
2022/06/10 08:33:13;;;;;;;;;;;;;;;;;;5011996;28;19976;-72
2022/06/10 08:35:39;;;;;;;;;;;;;;;;;;5012357;28;19971;-72
2022/06/10 08:38:05;;;;;;;;;;;;;;;;;;5012037;28;19916;-72
2022/06/10 08:40:30;;;;;;;;;;;;;;;;;;5012574;28;19961;-72
2022/06/10 08:42:56;;;;;;;;;;;;;;;;;;5011735;28;19952;-72
2022/06/10 08:45:22;;;;;;;;;;;;;;;;;;5012957;28;19948;-72
2022/06/10 08:47:48;;;;;;;;;;;;;;;;;;5012698;28;20006;-72
2022/06/10 08:50:15;;;;;;;;;;;;;;;;;;5012637;28;19909;-71
2022/06/10 08:52:41;;;;;;;;;;;;;;;;;;5012113;28;20375;-72
2022/06/10 08:55:07;;;;;;;;;;;;;;;;;;5012493;28;20011;-72
2022/06/10 08:57:35;;;;;;;;;;;;;;;;;;5011584;28;20401;-72
2022/06/10 09:00:01;;;;;;;;;;;;;;;;;;5011684;28;19916;-72
2022/06/10 09:02:27;;;;;;;;;;;;;;;;;;5011379;28;20436;-71
2022/06/10 09:04:53;;;;;;;;;;;;;;;;;;5012249;28;20325;-72
2022/06/10 09:07:19;;;;;;;;;;;;;;;;;;5011931;28;19952;-71
2022/06/10 09:09:45;;;;;;;;;;;;;;;;;;5012140;28;19952;-70
2022/06/10 09:12:11;;;;;;;;;;;;;;;;;;5012641;28;19957;-70
2022/06/10 09:14:37;;;;;;;;;;;;;;;;;;5012423;28;19909;-70
2022/06/10 09:17:03;;;;;;;;;;;;;;;;;;4996424;28;19909;-73
2022/06/10 09:19:29;;;;;;;;;;;;;;;;;;5011500;28;20290;-73
2022/06/10 09:21:55;;;;;;;;;;;;;;;;;;5013577;28;19953;-73
2022/06/10 09:24:21;;;;;;;;;;;;;;;;;;5015675;28;19963;-75
2022/06/10 09:26:47;;;;;;;;;;;;;;;;;;5016306;28;19917;-75
2022/06/10 09:29:14;;;;;;;;;;;;;;;;;;5015775;28;20322;-76
2022/06/10 09:31:40;;;;;;;;;;;;;;;;;;5014060;28;19931;-76
2022/06/10 09:34:06;;;;;;;;;;;;;;;;;;5015589;28;19913;-75
2022/06/10 09:36:32;;;;;;;;;;;;;;;;;;5015075;28;19956;-76
2022/06/10 09:38:58;;;;;;;;;;;;;;;;;;5015069;28;19921;-76
2022/06/10 09:41:25;;;;;;;;;;;;;;;;;;5015433;28;19917;-76
2022/06/10 09:43:51;;;;;;;;;;;;;;;;;;5014549;28;20363;-76
2022/06/10 09:46:17;;;;;;;;;;;;;;;;;;5014471;28;19906;-76
2022/06/10 09:48:43;;;;;;;;;;;;;;;;;;5014755;28;20325;-76
2022/06/10 09:51:09;;;;;;;;;;;;;;;;;;5015087;28;19967;-75
2022/06/10 09:53:36;;;;;;;;;;;;;;;;;;5014442;28;19996;-75
2022/06/10 09:56:02;;;;;;;;;;;;;;;;;;5014727;28;19909;-75
2022/06/10 09:58:28;;;;;;;;;;;;;;;;;;5015015;28;19928;-76
2022/06/10 10:00:54;;;;;;;;;;;;;;;;;;5014007;28;19917;-76
2022/06/10 10:03:20;;;;;;;;;;;;;;;;;;5013958;28;19964;-75
2022/06/10 10:05:46;;;;;;;;;;;;;;;;;;5015176;28;19913;-76
2022/06/10 10:08:12;;;;;;;;;;;;;;;;;;5014359;28;20412;-76
2022/06/10 10:10:38;;;;;;;;;;;;;;;;;;5013634;28;19909;-75
2022/06/10 10:13:04;;;;;;;;;;;;;;;;;;5013263;28;19949;-75
2022/06/10 10:15:30;;;;;;;;;;;;;;;;;;5015127;28;19955;-76
2022/06/10 10:17:56;;;;;;;;;;;;;;;;;;5014074;28;19909;-76
2022/06/10 10:20:22;;;;;;;;;;;;;;;;;;5014198;28;20164;-75
2022/06/10 10:22:48;;;;;;;;;;;;;;;;;;5012418;28;19960;-75
2022/06/10 10:25:14;;;;;;;;;;;;;;;;;;5013654;28;19909;-76
2022/06/10 10:27:40;;;;;;;;;;;;;;;;;;5013752;28;20244;-75
2022/06/10 10:30:06;;;;;;;;;;;;;;;;;;5014508;28;19964;-75
2022/06/10 10:32:32;;;;;;;;;;;;;;;;;;5014303;28;20007;-74
2022/06/10 10:35:03;;;;;;;;;;;;;;;;;;5013083;28;19960;-72
2022/06/10 10:37:29;;;;;;;;;;;;;;;;;;5012661;28;19909;-71
2022/06/10 10:39:59;;;;;;;;;;;;;;;;;;5014161;28;20343;-73
2022/06/10 10:42:25;;;;;;;;;;;;;;;;;;5013700;28;20387;-73
2022/06/10 10:44:51;;;;;;;;;;;;;;;;;;5013314;28;19952;-73
2022/06/10 10:47:17;;;;;;;;;;;;;;;;;;5014063;28;20351;-74
2022/06/10 10:49:43;;;;;;;;;;;;;;;;;;5012945;28;19905;-74
2022/06/10 10:52:09;;;;;;;;;;;;;;;;;;5013636;28;19986;-73
2022/06/10 10:54:35;;;;;;;;;;;;;;;;;;5014536;28;19910;-73
2022/06/10 10:57:01;;;;;;;;;;;;;;;;;;5013096;28;19920;-73
2022/06/10 10:59:27;;;;;;;;;;;;;;;;;;5007444;28;19924;-73
2022/06/10 11:01:54;;;;;;;;;;;;;;;;;;4996401;28;20406;-72
2022/06/10 11:04:20;;;;;;;;;;;;;;;;;;5012352;28;20368;-72
2022/06/10 11:06:46;;;;;;;;;;;;;;;;;;5013645;28;19972;-71
2022/06/10 11:09:12;;;;;;;;;;;;;;;;;;5013696;28;20407;-71
2022/06/10 11:11:38;;;;;;;;;;;;;;;;;;5014392;28;19944;-71
2022/06/10 11:14:04;;;;;;;;;;;;;;;;;;4997230;28;19913;-71
2022/06/10 11:16:30;;;;;;;;;;;;;;;;;;5011689;28;19905;-71
2022/06/10 11:18:56;;;;;;;;;;;;;;;;;;5013161;28;19964;-70
2022/06/10 11:21:25;;;;;;;;;;;;;;;;;;5011659;28;19949;-70
2022/06/10 11:23:51;;;;;;;;;;;;;;;;;;5010458;28;19931;-70
2022/06/10 11:26:18;;;;;;;;;;;;;;;;;;4998498;28;20375;-74
2022/06/10 11:28:44;;;;;;;;;;;;;;;;;;5000205;28;19906;-73
2022/06/10 11:31:10;;;;;;;;;;;;;;;;;;5006916;28;19909;-74
2022/06/10 11:33:37;;;;;;;;;;;;;;;;;;5012681;28;19949;-72
2022/06/10 11:36:04;;;;;;;;;;;;;;;;;;5012669;28;19910;-71
2022/06/10 11:38:30;;;;;;;;;;;;;;;;;;5013214;28;20401;-71
2022/06/10 11:40:56;;;;;;;;;;;;;;;;;;5011751;28;24548;-70
2022/06/10 11:43:22;;;;;;;;;;;;;;;;;;5011736;28;19948;-71
2022/06/10 11:45:48;;;;;;;;;;;;;;;;;;5010728;28;19916;-71
2022/06/10 11:48:14;;;;;;;;;;;;;;;;;;5012154;28;20306;-71
2022/06/10 11:50:40;;;;;;;;;;;;;;;;;;5013279;28;19945;-71
2022/06/10 11:53:06;;;;;;;;;;;;;;;;;;5012928;28;20016;-71
2022/06/10 11:55:32;;;;;;;;;;;;;;;;;;5010751;28;19941;-71
2022/06/10 12:00:42;;;;;;;;;;;;;;;;;;5008991;28;19987;-71
2022/06/10 12:03:08;;;;;;;;;;;;;;;;;;5013028;28;19949;-71
2022/06/10 12:05:34;;;;;;;;;;;;;;;;;;5013038;28;19941;-71
2022/06/10 12:08:01;;;;;;;;;;;;;;;;;;5011875;28;20046;-71
2022/06/10 12:10:27;;;;;;;;;;;;;;;;;;5012297;28;19988;-71
2022/06/10 12:12:53;;;;;;;;;;;;;;;;;;5012376;28;20344;-70
2022/06/10 12:15:19;;;;;;;;;;;;;;;;;;5012839;28;20283;-71
2022/06/10 12:17:45;;;;;;;;;;;;;;;;;;5013164;28;19937;-70
2022/06/10 12:20:11;;;;;;;;;;;;;;;;;;5012988;28;19975;-71
2022/06/10 12:22:37;;;;;;;;;;;;;;;;;;5010801;28;19956;-70
2022/06/10 12:25:03;;;;;;;;;;;;;;;;;;5012267;28;19983;-71
2022/06/10 12:27:29;;;;;;;;;;;;;;;;;;5012548;28;20059;-70
2022/06/10 12:29:56;;;;;;;;;;;;;;;;;;5010892;28;19909;-70
2022/06/10 12:32:22;;;;;;;;;;;;;;;;;;5010970;28;20036;-70
2022/06/10 12:34:48;;;;;;;;;;;;;;;;;;5011781;28;19910;-69
2022/06/10 12:37:14;;;;;;;;;;;;;;;;;;5012592;28;19909;-70
2022/06/10 12:39:40;;;;;;;;;;;;;;;;;;5012623;28;19945;-70
2022/06/10 12:42:06;;;;;;;;;;;;;;;;;;5007070;28;19921;-70
2022/06/10 12:44:34;;;;;;;;;;;;;;;;;;5011705;28;20002;-70
2022/06/10 12:47:00;;;;;;;;;;;;;;;;;;5011427;28;19913;-70
2022/06/10 12:49:27;;;;;;;;;;;;;;;;;;5011253;28;19913;-70
2022/06/10 12:51:53;;;;;;;;;;;;;;;;;;5011432;28;19913;-70
2022/06/10 12:54:19;;;;;;;;;;;;;;;;;;5011300;28;19916;-70
2022/06/10 12:56:45;;;;;;;;;;;;;;;;;;5012510;28;19945;-69
2022/06/10 12:59:11;;;;;;;;;;;;;;;;;;5015776;28;19960;-69
2022/06/10 13:01:37;;;;;;;;;;;;;;;;;;5012968;28;20293;-70
2022/06/10 13:04:03;;;;;;;;;;;;;;;;;;5017451;28;19964;-69
2022/06/10 13:06:29;;;;;;;;;;;;;;;;;;5017636;28;19941;-68
2022/06/10 13:08:57;;;;;;;;;;;;;;;;;;5010372;28;19909;-69
2022/06/10 13:11:22;;;;;;;;;;;;;;;;;;5016277;28;19916;-70
2022/06/10 13:13:48;;;;;;;;;;;;;;;;;;5014850;28;19945;-69
2022/06/10 13:16:14;;;;;;;;;;;;;;;;;;5014169;28;19952;-69
2022/06/10 13:18:40;;;;;;;;;;;;;;;;;;5015294;28;19975;-69
2022/06/10 13:21:06;;;;;;;;;;;;;;;;;;5013506;28;19944;-69
2022/06/10 13:23:32;;;;;;;;;;;;;;;;;;5013712;28;19972;-69
2022/06/10 13:25:58;;;;;;;;;;;;;;;;;;5015439;28;19924;-70
2022/06/10 13:28:24;;;;;;;;;;;;;;;;;;5013441;28;19944;-69
2022/06/10 13:30:50;;;;;;;;;;;;;;;;;;5014604;28;19937;-69
2022/06/10 13:33:18;;;;;;;;;;;;;;;;;;5014268;28;19917;-69
2022/06/10 13:35:44;;;;;;;;;;;;;;;;;;5014706;28;19921;-69
2022/06/10 13:38:10;;;;;;;;;;;;;;;;;;5014288;28;19944;-69
2022/06/10 13:40:36;;;;;;;;;;;;;;;;;;5014136;28;19956;-69
2022/06/10 13:43:02;;;;;;;;;;;;;;;;;;5014476;28;19951;-69
2022/06/10 13:45:28;;;;;;;;;;;;;;;;;;5014208;28;19917;-69
2022/06/10 13:47:54;;;;;;;;;;;;;;;;;;5014816;28;19945;-69
2022/06/10 13:50:36;;;;;;;;;;;;;;;;;;5014720;28;20401;-69
2022/06/10 13:53:04;;;;;;;;;;;;;;;;;;5014211;28;19909;-69
2022/06/10 13:55:30;;;;;;;;;;;;;;;;;;5013273;28;20356;-69
2022/06/10 13:57:56;;;;;;;;;;;;;;;;;;5015030;28;19909;-69
2022/06/10 14:00:22;;;;;;;;;;;;;;;;;;5014297;28;19913;-69
2022/06/10 14:02:48;;;;;;;;;;;;;;;;;;5014109;28;20400;-69
2022/06/10 14:05:14;;;;;;;;;;;;;;;;;;5014127;28;19937;-69
2022/06/10 14:07:41;;;;;;;;;;;;;;;;;;5012898;28;19909;-69
2022/06/10 14:10:07;;;;;;;;;;;;;;;;;;5013796;28;20404;-69
2022/06/10 14:12:33;;;;;;;;;;;;;;;;;;5013839;28;20008;-69
2022/06/10 14:14:59;;;;;;;;;;;;;;;;;;5014037;28;20092;-69
2022/06/10 14:17:25;;;;;;;;;;;;;;;;;;5015424;28;19944;-69
2022/06/10 14:19:51;;;;;;;;;;;;;;;;;;5013722;28;19937;-69
2022/06/10 14:22:17;;;;;;;;;;;;;;;;;;5012342;28;19982;-69
2022/06/10 14:24:42;;;;;;;;;;;;;;;;;;5012416;28;20186;-69
2022/06/10 14:27:09;;;;;;;;;;;;;;;;;;5012876;28;19957;-69
2022/06/10 14:29:35;;;;;;;;;;;;;;;;;;5012742;28;19916;-69
2022/06/10 14:32:01;;;;;;;;;;;;;;;;;;5013783;28;20406;-70
2022/06/10 14:34:27;;;;;;;;;;;;;;;;;;5012922;28;19909;-69
2022/06/10 14:36:53;;;;;;;;;;;;;;;;;;5013933;28;19924;-69
2022/06/10 14:39:20;;;;;;;;;;;;;;;;;;5013989;28;19952;-69
2022/06/10 14:41:46;;;;;;;;;;;;;;;;;;5014372;28;19975;-69
2022/06/10 14:44:12;;;;;;;;;;;;;;;;;;5013632;28;19944;-69
2022/06/10 14:46:38;;;;;;;;;;;;;;;;;;5012412;28;20418;-69
2022/06/10 14:49:04;;;;;;;;;;;;;;;;;;5014785;28;19961;-69
2022/06/10 14:51:30;;;;;;;;;;;;;;;;;;5006850;28;20347;-69
2022/06/10 14:53:56;;;;;;;;;;;;;;;;;;5012704;28;19964;-69
2022/06/10 14:56:22;;;;;;;;;;;;;;;;;;5014484;28;20100;-69
2022/06/10 14:58:48;;;;;;;;;;;;;;;;;;5012111;28;19918;-69
2022/06/10 15:01:14;;;;;;;;;;;;;;;;;;5014940;28;20084;-69
2022/06/10 15:03:40;;;;;;;;;;;;;;;;;;5014414;28;19941;-69
2022/06/10 15:06:14;;;;;;;;;;;;;;;;;;5012675;28;19948;-69
2022/06/10 15:08:41;;;;;;;;;;;;;;;;;;5014008;28;20270;-69
2022/06/10 15:11:07;;;;;;;;;;;;;;;;;;5013714;28;20023;-69
2022/06/10 15:13:33;;;;;;;;;;;;;;;;;;5027885;28;20013;-69
2022/06/10 15:15:59;;;;;;;;;;;;;;;;;;5006431;28;19920;-69
2022/06/10 15:18:25;;;;;;;;;;;;;;;;;;5006578;28;19941;-70
2022/06/10 15:20:51;;;;;;;;;;;;;;;;;;5005859;28;20377;-70
2022/06/10 15:23:17;;;;;;;;;;;;;;;;;;5006762;28;19960;-69
2022/06/10 15:25:42;;;;;;;;;;;;;;;;;;5008661;28;19956;-69
2022/06/10 15:28:12;;;;;;;;;;;;;;;;;;5006783;28;19941;-69
2022/06/10 15:30:38;;;;;;;;;;;;;;;;;;5007767;28;19909;-69
2022/06/10 15:33:04;;;;;;;;;;;;;;;;;;5005878;28;19955;-69
2022/06/10 15:41:00;;;;;;;;;;;;;;;;;;5006985;28;19980;-69
2022/06/10 15:43:26;;;;;;;;;;;;;;;;;;5008175;28;19944;-70
2022/06/10 15:45:53;;;;;;;;;;;;;;;;;;5005794;28;19944;-70
2022/06/10 15:48:19;;;;;;;;;;;;;;;;;;5006260;28;19920;-69
2022/06/10 15:50:45;;;;;;;;;;;;;;;;;;5006525;28;19913;-70
2022/06/10 15:53:11;;;;;;;;;;;;;;;;;;5006296;28;20405;-70
2022/06/10 15:58:21;;;;;;;;;;;;;;;;;;5007876;28;19920;-69
2022/06/10 16:00:47;;;;;;;;;;;;;;;;;;5005741;28;20586;-70
2022/06/10 16:03:14;;;;;;;;;;;;;;;;;;5006530;28;19940;-69
2022/06/10 16:05:40;;;;;;;;;;;;;;;;;;5006352;28;19956;-69
2022/06/10 16:08:06;;;;;;;;;;;;;;;;;;5006193;28;19952;-69
2022/06/10 16:10:32;;;;;;;;;;;;;;;;;;5022661;28;19909;-69
2022/06/10 16:12:59;;;;;;;;;;;;;;;;;;5005301;28;19945;-69
2022/06/10 16:15:25;;;;;;;;;;;;;;;;;;5005088;28;20319;-69
2022/06/10 16:17:51;;;;;;;;;;;;;;;;;;5006763;28;19952;-69
2022/06/10 16:20:18;;;;;;;;;;;;;;;;;;5006447;28;19928;-71
2022/06/10 16:22:44;;;;;;;;;;;;;;;;;;5006722;28;19965;-69
2022/06/10 16:25:11;;;;;;;;;;;;;;;;;;5006827;28;20395;-73
2022/06/10 16:27:37;;;;;;;;;;;;;;;;;;5003907;28;19949;-70
2022/06/10 16:30:03;;;;;;;;;;;;;;;;;;5005232;28;20007;-71
2022/06/10 16:32:29;;;;;;;;;;;;;;;;;;5013083;28;19948;-70
2022/06/10 16:34:55;;;;;;;;;;;;;;;;;;5005563;28;19991;-71
2022/06/10 16:37:21;;;;;;;;;;;;;;;;;;5007281;28;19963;-71
2022/06/10 16:39:47;;;;;;;;;;;;;;;;;;5003773;28;19913;-71
2022/06/10 16:42:13;;;;;;;;;;;;;;;;;;5004868;28;20331;-71
2022/06/10 16:44:40;;;;;;;;;;;;;;;;;;5014094;28;19959;-71
2022/06/10 16:47:06;;;;;;;;;;;;;;;;;;5017572;28;20100;-70
2022/06/10 16:49:33;;;;;;;;;;;;;;;;;;5007346;28;20029;-70
2022/06/10 16:51:59;;;;;;;;;;;;;;;;;;5003477;28;20460;-70
2022/06/10 16:54:25;;;;;;;;;;;;;;;;;;5002981;28;19924;-70